Time;durP1;ratioP1;P1;durP2;ratioP2;P2;SDS_P1;SDS_P2;PMS_P1;PMS_P2;Temp;Humidity;BMP_temperature;BMP_pressure;BME280_temperature;BME280_humidity;BME280_pressure;Samples;Min_cycle;Max_cycle;Signal;HPM_P1;HPM_P2
2022/03/13 00:00:47;;;;;;;17.67;12.45;;;13.90;47.10;;;;;;5068515;28;20123;-45
2022/03/13 00:03:16;;;;;;;17.30;11.80;;;13.90;47.40;;;;;;5068440;28;20064;-45
2022/03/13 00:05:48;;;;;;;15.20;11.55;;;13.90;47.80;;;;;;5052615;28;20530;-47
2022/03/13 00:08:31;;;;;;;15.07;11.18;;;13.90;47.80;;;;;;5066932;28;20412;-47
2022/03/13 00:11:03;;;;;;;14.52;11.07;;;13.90;48.40;;;;;;5052120;28;20060;-46
2022/03/13 00:13:31;;;;;;;;;;;13.90;49.00;;;;;;5051221;28;20041;-45
2022/03/13 00:16:03;;;;;;;13.93;10.60;;;13.90;48.30;;;;;;5052424;28;20372;-45
2022/03/13 00:18:32;;;;;;;16.02;12.45;;;13.80;48.40;;;;;;5071507;28;20048;-45
2022/03/13 00:21:04;;;;;;;15.90;10.85;;;13.80;48.80;;;;;;5071929;28;20044;-45
2022/03/13 00:23:34;;;;;;;14.40;11.10;;;13.80;49.20;;;;;;5049730;28;20103;-45
2022/03/13 00:26:02;;;;;;;14.90;11.18;;;13.70;49.80;;;;;;5049883;28;20045;-45
2022/03/13 00:28:29;;;;;;;15.90;11.10;;;13.70;50.20;;;;;;5064078;28;20496;-45
2022/03/13 00:31:01;;;;;;;16.42;12.10;;;13.70;50.20;;;;;;5061906;28;20041;-45
2022/03/13 00:33:28;;;;;;;17.30;12.15;;;13.60;50.50;;;;;;5054941;28;20459;-46
2022/03/13 00:35:54;;;;;;;15.35;11.55;;;13.60;50.60;;;;;;5071415;28;20086;-46
2022/03/13 00:38:25;;;;;;;14.52;12.10;;;13.60;50.80;;;;;;5058900;28;20603;-46
2022/03/13 00:40:57;;;;;;;14.93;11.50;;;13.50;50.60;;;;;;5063655;28;20497;-46
2022/03/13 00:43:25;;;;;;;13.17;11.43;;;13.50;50.60;;;;;;5047852;28;20066;-46
2022/03/13 00:45:52;;;;;;;15.93;11.63;;;13.50;50.20;;;;;;5064834;28;20083;-46
2022/03/13 00:48:19;;;;;;;14.88;11.05;;;13.40;50.10;;;;;;5059702;28;20106;-51
2022/03/13 00:50:46;;;;;;;16.00;12.32;;;13.30;50.30;;;;;;5063772;28;20066;-48
2022/03/13 00:53:13;;;;;;;17.15;12.38;;;13.30;50.60;;;;;;5071506;28;20411;-45
2022/03/13 00:55:40;;;;;;;16.15;12.25;;;13.30;50.40;;;;;;5069252;28;20630;-47
2022/03/13 00:58:12;;;;;;;19.03;12.43;;;13.30;50.30;;;;;;5045712;28;20067;-47
2022/03/13 01:00:38;;;;;;;15.32;11.25;;;13.20;50.40;;;;;;5059110;28;20475;-47
2022/03/13 01:03:05;;;;;;;15.45;12.23;;;13.30;50.70;;;;;;5062222;28;20193;-44
2022/03/13 01:05:32;;;;;;;20.30;13.02;;;13.20;50.80;;;;;;5070525;28;20063;-48
2022/03/13 01:07:59;;;;;;;14.02;11.95;;;13.20;50.80;;;;;;5066461;28;20056;-46
2022/03/13 01:10:26;;;;;;;13.65;12.25;;;13.20;50.80;;;;;;5049246;28;20050;-47
2022/03/13 01:12:54;;;;;;;15.95;12.02;;;13.10;51.00;;;;;;5071028;28;20408;-46
2022/03/13 01:15:22;;;;;;;14.00;11.10;;;13.10;51.20;;;;;;5065955;28;20654;-47
2022/03/13 01:17:49;;;;;;;16.05;11.80;;;13.10;51.40;;;;;;5049756;28;20566;-46
2022/03/13 01:20:19;;;;;;;14.65;11.45;;;13.10;51.30;;;;;;5047307;28;20100;-48
2022/03/13 01:22:45;;;;;;;14.98;11.95;;;13.10;51.60;;;;;;5068368;28;20690;-46
2022/03/13 01:25:13;;;;;;;17.65;12.05;;;13.00;51.50;;;;;;5058312;28;20071;-46
2022/03/13 01:27:41;;;;;;;16.90;12.23;;;13.00;51.30;;;;;;5056548;28;20036;-51
2022/03/13 01:30:10;;;;;;;16.33;12.38;;;13.00;51.40;;;;;;5070367;28;20133;-46
2022/03/13 01:32:37;;;;;;;16.23;12.27;;;13.00;51.70;;;;;;5071716;28;20089;-46
2022/03/13 01:35:04;;;;;;;15.70;12.52;;;12.90;51.20;;;;;;5057466;28;20049;-45
2022/03/13 01:37:40;;;;;;;16.67;12.80;;;12.90;51.20;;;;;;5064157;28;20037;-51
2022/03/13 01:40:19;;;;;;;17.25;12.60;;;12.90;51.60;;;;;;5056665;28;20571;-46
2022/03/13 01:42:47;;;;;;;16.15;12.65;;;12.90;51.70;;;;;;5063414;28;20039;-48
2022/03/13 01:45:20;;;;;;;18.23;12.65;;;12.90;52.10;;;;;;5069879;28;20416;-45
2022/03/13 01:47:47;;;;;;;18.55;12.02;;;12.90;52.30;;;;;;5065981;28;20908;-45
2022/03/13 01:50:15;;;;;;;15.82;10.88;;;12.90;52.50;;;;;;5050033;28;20052;-46
2022/03/13 01:52:47;;;;;;;17.08;13.13;;;12.80;52.30;;;;;;5055020;28;20123;-46
2022/03/13 01:55:13;;;;;;;15.40;11.23;;;12.80;52.80;;;;;;5069721;28;20749;-45
2022/03/13 01:57:40;;;;;;;16.60;11.60;;;12.80;52.40;;;;;;5055993;28;20054;-46
2022/03/13 02:00:09;;;;;;;17.80;13.18;;;12.70;52.40;;;;;;5041634;28;20051;-46
2022/03/13 02:02:47;;;;;;;15.40;12.07;;;12.70;52.50;;;;;;5054101;28;20094;-49
2022/03/13 02:05:34;;;;;;;;;;;12.70;52.40;;;;;;5057564;28;20095;-48
2022/03/13 02:08:20;;;;;;;15.48;11.80;;;12.70;52.00;;;;;;5053374;28;19946;-47
2022/03/13 02:10:48;;;;;;;15.77;11.90;;;12.60;51.90;;;;;;5069788;28;20044;-45
2022/03/13 02:13:19;;;;;;;16.17;11.82;;;12.60;51.50;;;;;;5071304;28;20053;-46
2022/03/13 02:15:46;;;;;;;16.90;12.43;;;12.50;51.90;;;;;;5044860;28;20091;-50
2022/03/13 02:18:14;;;;;;;16.42;12.18;;;12.50;52.00;;;;;;5063524;28;20488;-47
2022/03/13 02:20:43;;;;;;;14.23;11.68;;;12.50;51.90;;;;;;5069259;28;20067;-46
2022/03/13 02:23:22;;;;;;;16.90;12.38;;;12.40;52.60;;;;;;5070998;28;20041;-47
2022/03/13 02:25:50;;;;;;;18.48;12.57;;;12.40;52.50;;;;;;5043555;28;20501;-48
2022/03/13 02:28:22;;;;;;;17.40;12.52;;;12.30;52.10;;;;;;5060197;28;20040;-48
2022/03/13 02:30:55;;;;;;;19.33;12.45;;;12.30;52.50;;;;;;5069266;28;20072;-46
2022/03/13 02:33:23;;;;;;;15.68;11.85;;;12.20;52.20;;;;;;5053777;28;20065;-45
2022/03/13 02:36:03;;;;;;;16.70;12.23;;;12.10;51.60;;;;;;5051853;28;20040;-46
2022/03/13 02:38:31;;;;;;;16.70;11.98;;;12.10;51.60;;;;;;5064899;28;20041;-45
2022/03/13 02:40:58;;;;;;;16.23;12.57;;;12.00;51.40;;;;;;5055576;28;20069;-47
2022/03/13 02:43:25;;;;;;;18.05;12.20;;;12.00;51.20;;;;;;5046610;28;20051;-45
2022/03/13 02:45:52;;;;;;;18.45;12.20;;;12.00;51.20;;;;;;5050692;28;20044;-47
2022/03/13 02:48:19;;;;;;;16.73;11.88;;;12.00;51.30;;;;;;5067372;28;20045;-50
2022/03/13 02:50:49;;;;;;;18.50;12.00;;;11.90;51.00;;;;;;5055502;28;20045;-47
2022/03/13 02:53:16;;;;;;;17.88;11.82;;;11.90;50.80;;;;;;5043128;28;20048;-45
2022/03/13 02:55:44;;;;;;;14.13;11.07;;;11.90;50.50;;;;;;5052656;28;20044;-46
2022/03/13 02:58:12;;;;;;;18.13;12.80;;;11.90;50.40;;;;;;5070539;28;20463;-46
2022/03/13 03:00:45;;;;;;;18.88;12.15;;;11.90;50.40;;;;;;5069100;28;20036;-49
2022/03/13 03:03:13;;;;;;;;;;;12.00;50.40;;;;;;5058489;28;20044;-44
2022/03/13 03:05:40;;;;;;;16.27;10.32;;;12.00;50.30;;;;;;5055148;28;19974;-45
2022/03/13 03:08:07;;;;;;;16.25;11.90;;;12.00;49.60;;;;;;5069359;28;20048;-47
2022/03/13 03:10:36;;;;;;;19.20;12.23;;;12.00;49.60;;;;;;5048973;28;20044;-46
2022/03/13 03:13:03;;;;;;;17.75;12.10;;;12.00;49.40;;;;;;5038883;28;20057;-47
2022/03/13 03:15:30;;;;;;;17.38;11.98;;;12.00;49.50;;;;;;5055643;28;20095;-47
2022/03/13 03:17:57;;;;;;;16.90;12.27;;;12.10;49.80;;;;;;5068943;28;20128;-50
2022/03/13 03:20:24;;;;;;;19.05;12.45;;;12.00;49.70;;;;;;5068675;28;20045;-45
2022/03/13 03:22:52;;;;;;;17.42;12.65;;;12.10;49.60;;;;;;5054876;28;20037;-46
2022/03/13 03:25:27;;;;;;;16.67;12.50;;;12.10;49.60;;;;;;5051887;28;20640;-46
2022/03/13 03:27:56;;;;;;;15.80;12.30;;;12.10;49.70;;;;;;5049470;28;20759;-50
2022/03/13 03:30:25;;;;;;;17.58;13.40;;;12.10;49.70;;;;;;5047130;28;20586;-50
2022/03/13 03:32:52;;;;;;;16.52;13.43;;;12.10;49.50;;;;;;5057297;28;20041;-49
2022/03/13 03:35:22;;;;;;;16.23;12.15;;;12.10;49.50;;;;;;5068319;28;20068;-47
2022/03/13 03:37:50;;;;;;;15.50;10.82;;;12.10;49.20;;;;;;5063484;28;20036;-47
2022/03/13 03:40:24;;;;;;;17.88;13.50;;;12.10;48.90;;;;;;5044259;28;20060;-45
2022/03/13 03:42:51;;;;;;;16.33;11.63;;;12.10;48.70;;;;;;5057941;28;20038;-48
2022/03/13 03:45:17;;;;;;;14.73;11.10;;;12.10;48.50;;;;;;5067869;28;20102;-47
2022/03/13 03:47:45;;;;;;;16.95;12.05;;;12.10;48.10;;;;;;5052012;28;20189;-46
2022/03/13 03:50:13;;;;;;;15.05;11.43;;;12.10;48.20;;;;;;5049342;28;20566;-47
2022/03/13 03:52:41;;;;;;;15.77;11.57;;;12.10;48.10;;;;;;5064066;28;20115;-47
2022/03/13 03:55:08;;;;;;;15.35;10.82;;;12.10;47.80;;;;;;5070974;28;20462;-46
2022/03/13 03:57:35;;;;;;;14.25;11.48;;;12.10;48.00;;;;;;5068842;28;20072;-47
2022/03/13 04:00:06;;;;;;;16.27;11.35;;;12.10;47.60;;;;;;5052550;28;20048;-45
2022/03/13 04:02:39;;;;;;;12.88;10.73;;;12.10;47.70;;;;;;5071737;28;20044;-51
2022/03/13 04:05:07;;;;;;;20.33;11.50;;;12.10;47.60;;;;;;5071933;28;20185;-47
2022/03/13 04:07:36;;;;;;;16.00;11.75;;;12.10;47.70;;;;;;5059612;28;20103;-47
2022/03/13 04:10:08;;;;;;;13.95;10.70;;;12.10;47.50;;;;;;5040155;28;20052;-47
2022/03/13 04:12:35;;;;;;;16.45;10.80;;;12.10;47.50;;;;;;5071908;28;20496;-50
2022/03/13 04:15:04;;;;;;;15.48;11.60;;;12.10;47.60;;;;;;5069162;28;20090;-46
2022/03/13 04:17:31;;;;;;;12.48;10.15;;;12.10;47.50;;;;;;5055537;28;20045;-47
2022/03/13 04:19:59;;;;;;;16.55;11.23;;;12.10;47.70;;;;;;5067587;28;20040;-47
2022/03/13 04:22:27;;;;;;;16.77;11.07;;;12.10;47.70;;;;;;5054344;28;20048;-48
2022/03/13 04:24:54;;;;;;;13.98;11.57;;;12.10;47.60;;;;;;5065576;28;20056;-49
2022/03/13 04:27:21;;;;;;;14.85;11.00;;;12.10;47.70;;;;;;5046515;28;20049;-45
2022/03/13 04:29:48;;;;;;;13.50;9.85;;;12.10;47.30;;;;;;5058950;28;20040;-49
2022/03/13 04:32:19;;;;;;;18.65;11.07;;;12.10;47.20;;;;;;5059664;28;20821;-50
2022/03/13 04:34:46;;;;;;;13.17;9.97;;;12.10;47.10;;;;;;5047736;28;20048;-45
2022/03/13 04:37:14;;;;;;;15.00;9.60;;;12.00;47.20;;;;;;5070939;28;20071;-47
2022/03/13 04:39:42;;;;;;;18.23;10.75;;;12.00;47.20;;;;;;5051856;28;20071;-46
2022/03/13 04:42:09;;;;;;;14.70;10.88;;;12.00;47.20;;;;;;5049774;28;20120;-46
2022/03/13 04:44:36;;;;;;;12.63;10.23;;;12.00;47.30;;;;;;5064630;28;20062;-46
2022/03/13 04:47:03;;;;;;;13.50;10.40;;;12.00;46.80;;;;;;5056080;28;20655;-46
2022/03/13 04:49:30;;;;;;;14.27;10.27;;;12.00;46.80;;;;;;5069202;28;20037;-46
2022/03/13 04:51:57;;;;;;;12.52;9.90;;;12.00;46.70;;;;;;5054274;28;20462;-47
2022/03/13 04:54:24;;;;;;;12.88;9.40;;;12.00;46.60;;;;;;5070384;28;20045;-47
2022/03/13 04:56:51;;;;;;;14.40;10.60;;;12.00;46.60;;;;;;5058247;28;20098;-45
2022/03/13 04:59:18;;;;;;;16.63;10.07;;;12.00;46.50;;;;;;5068322;28;20089;-48
2022/03/13 05:01:46;;;;;;;13.88;10.52;;;12.00;46.50;;;;;;5071988;28;20070;-50
2022/03/13 05:04:15;;;;;;;14.38;10.70;;;12.00;46.50;;;;;;5053802;28;20061;-45
2022/03/13 05:06:43;;;;;;;16.08;11.00;;;12.00;46.50;;;;;;5057731;28;20036;-49
2022/03/13 05:09:10;;;;;;;16.80;9.73;;;11.90;46.40;;;;;;5052309;28;20520;-49
2022/03/13 05:11:39;;;;;;;14.45;10.93;;;11.90;46.40;;;;;;5052730;28;20041;-47
2022/03/13 05:14:05;;;;;;;11.90;10.25;;;11.90;46.50;;;;;;5048846;28;20061;-47
2022/03/13 05:16:34;;;;;;;12.27;10.00;;;11.90;46.70;;;;;;5056994;28;20037;-47
2022/03/13 05:19:02;;;;;;;13.98;9.70;;;12.00;46.80;;;;;;5070789;28;20452;-44
2022/03/13 05:21:29;;;;;;;14.40;10.38;;;11.90;46.50;;;;;;5071333;28;20095;-46
2022/03/13 05:23:58;;;;;;;14.52;10.23;;;11.90;46.50;;;;;;5053469;28;20044;-48
2022/03/13 05:26:25;;;;;;;14.00;10.52;;;11.90;46.40;;;;;;5063917;28;20052;-46
2022/03/13 05:28:55;;;;;;;14.60;9.70;;;11.90;46.20;;;;;;5061700;28;20048;-51
2022/03/13 05:31:21;;;;;;;13.00;9.38;;;11.90;46.30;;;;;;5062976;28;20045;-51
2022/03/13 05:33:48;;;;;;;14.02;9.98;;;11.90;46.40;;;;;;5070680;28;20044;-47
2022/03/13 05:36:15;;;;;;;14.35;9.68;;;11.90;46.50;;;;;;5070848;28;20137;-47
2022/03/13 05:38:43;;;;;;;13.82;9.70;;;11.90;46.60;;;;;;5051814;28;20122;-46
2022/03/13 05:41:12;;;;;;;13.25;9.70;;;11.90;46.50;;;;;;5053180;28;20029;-48
2022/03/13 05:43:40;;;;;;;11.48;9.35;;;11.90;46.40;;;;;;5047201;28;20068;-48
2022/03/13 05:46:07;;;;;;;12.80;9.93;;;11.90;46.60;;;;;;5065718;28;20049;-49
2022/03/13 05:48:34;;;;;;;12.55;8.90;;;11.90;46.70;;;;;;5072454;28;20442;-50
2022/03/13 05:51:00;;;;;;;12.63;9.80;;;11.90;46.70;;;;;;5036845;28;20053;-46
2022/03/13 05:53:27;;;;;;;12.00;9.13;;;11.90;46.80;;;;;;5054207;28;20523;-47
2022/03/13 05:55:54;;;;;;;12.65;9.90;;;11.90;46.70;;;;;;5058219;28;20445;-45
2022/03/13 05:58:20;;;;;;;14.43;9.63;;;11.90;46.70;;;;;;5051330;28;20098;-46
2022/03/13 06:00:54;;;;;;;13.73;10.45;;;11.90;46.70;;;;;;5047258;28;20538;-49
2022/03/13 06:03:21;;;;;;;15.20;9.73;;;11.90;46.60;;;;;;5066039;28;20556;-47
2022/03/13 06:05:48;;;;;;;15.15;9.90;;;11.90;46.50;;;;;;5070593;28;20086;-46
2022/03/13 06:08:15;;;;;;;14.85;9.93;;;11.90;46.40;;;;;;5084607;22;20048;-49
2022/03/13 06:10:42;;;;;;;13.27;9.77;;;11.90;46.30;;;;;;5050004;28;20041;-46
2022/03/13 06:13:14;;;;;;;13.90;9.32;;;11.90;46.40;;;;;;5050724;28;20049;-45
2022/03/13 06:15:43;;;;;;;16.08;10.15;;;11.90;46.40;;;;;;5050662;28;20052;-47
2022/03/13 06:18:11;;;;;;;12.65;9.70;;;11.90;46.50;;;;;;5048257;28;20098;-48
2022/03/13 06:20:38;;;;;;;14.93;10.00;;;11.90;46.20;;;;;;5046944;28;20056;-49
2022/03/13 06:23:05;;;;;;;14.43;9.50;;;11.90;46.30;;;;;;5065641;28;20084;-49
2022/03/13 06:25:33;;;;;;;17.98;10.93;;;11.90;46.30;;;;;;5068698;28;20059;-47
2022/03/13 06:28:00;;;;;;;12.68;9.85;;;11.90;46.30;;;;;;5055558;28;20093;-52
2022/03/13 06:30:28;;;;;;;19.40;10.80;;;11.90;46.30;;;;;;5053676;28;20048;-46
2022/03/13 06:32:58;;;;;;;14.00;10.90;;;11.90;46.40;;;;;;5068394;28;20036;-48
2022/03/13 06:35:24;;;;;;;16.00;10.52;;;11.90;46.40;;;;;;5068388;28;20562;-50
2022/03/13 06:37:52;;;;;;;14.55;10.55;;;11.90;46.20;;;;;;5051462;28;20037;-49
2022/03/13 06:40:20;;;;;;;14.38;10.40;;;11.90;46.20;;;;;;5052683;28;20102;-50
2022/03/13 06:42:50;;;;;;;14.82;10.43;;;11.90;46.00;;;;;;5065973;28;20055;-47
2022/03/13 06:45:21;;;;;;;16.48;9.88;;;11.90;45.90;;;;;;5068296;28;20426;-50
2022/03/13 06:47:49;;;;;;;14.88;10.57;;;11.90;46.00;;;;;;5050339;28;20106;-47
2022/03/13 06:50:18;;;;;;;16.70;11.93;;;11.90;45.90;;;;;;5057009;28;20080;-49
2022/03/13 06:52:49;;;;;;;12.75;9.82;;;11.90;45.90;;;;;;5051716;28;20128;-48
2022/03/13 06:55:16;;;;;;;16.10;10.52;;;11.90;45.80;;;;;;5053795;28;20496;-48
2022/03/13 06:57:43;;;;;;;14.70;10.07;;;12.00;45.80;;;;;;5043778;28;20101;-49
2022/03/13 07:00:12;;;;;;;16.40;11.02;;;12.00;45.90;;;;;;5056850;28;20093;-46
2022/03/13 07:02:46;;;;;;;14.95;11.40;;;12.00;45.90;;;;;;5051829;28;20041;-47
2022/03/13 07:05:19;;;;;;;16.77;11.00;;;12.00;45.80;;;;;;5053954;28;20041;-47
2022/03/13 07:07:45;;;;;;;18.00;10.95;;;12.00;45.80;;;;;;5048286;28;20044;-47
2022/03/13 07:10:12;;;;;;;14.57;10.02;;;12.10;45.90;;;;;;5064212;28;20568;-46
2022/03/13 07:12:41;;;;;;;16.38;10.43;;;12.10;45.80;;;;;;5052023;28;20079;-51
2022/03/13 07:15:12;;;;;;;16.10;10.30;;;12.10;45.70;;;;;;5063533;28;20113;-52
2022/03/13 07:17:43;;;;;;;16.02;10.38;;;12.10;45.70;;;;;;5042748;28;20055;-47
2022/03/13 07:20:10;;;;;;;16.38;9.82;;;12.10;45.70;;;;;;5065457;28;20044;-46
2022/03/13 07:22:41;;;;;;;14.32;10.40;;;12.20;45.80;;;;;;5068022;28;20693;-49
2022/03/13 07:25:08;;;;;;;16.40;10.48;;;12.20;45.70;;;;;;5024252;28;20107;-47
2022/03/13 07:27:36;;;;;;;16.13;10.65;;;12.20;45.40;;;;;;5047091;28;20071;-50
2022/03/13 07:30:05;;;;;;;13.68;10.00;;;12.20;45.50;;;;;;5038178;28;20052;-47
2022/03/13 07:32:33;;;;;;;12.88;9.27;;;12.30;45.30;;;;;;5028619;28;20041;-50
2022/03/13 07:35:00;;;;;;;14.82;10.13;;;12.30;45.20;;;;;;5020823;28;20041;-48
2022/03/13 07:37:27;;;;;;;17.38;10.10;;;12.30;45.10;;;;;;5039369;28;20473;-52
2022/03/13 07:39:54;;;;;;;17.25;10.55;;;12.40;45.00;;;;;;5043807;28;20073;-46
2022/03/13 07:42:20;;;;;;;13.90;9.95;;;12.40;44.90;;;;;;5038646;28;20094;-54
2022/03/13 07:44:50;;;;;;;14.50;10.23;;;12.50;45.00;;;;;;5037670;28;20069;-52
2022/03/13 07:47:16;;;;;;;13.68;10.13;;;12.50;44.80;;;;;;5045964;28;20033;-48
2022/03/13 07:49:43;;;;;;;16.63;10.70;;;12.60;45.00;;;;;;5040069;28;20053;-48
2022/03/13 07:52:13;;;;;;;15.57;10.18;;;12.60;44.70;;;;;;5024039;28;20053;-49
2022/03/13 07:54:42;;;;;;;16.02;10.98;;;12.70;44.60;;;;;;5021643;28;20041;-48
2022/03/13 07:57:09;;;;;;;16.85;12.55;;;12.70;44.40;;;;;;5055510;28;20813;-46
2022/03/13 07:59:36;;;;;;;14.98;10.85;;;12.80;44.20;;;;;;5041416;28;20084;-48
2022/03/13 08:02:03;;;;;;;15.05;10.75;;;12.80;44.10;;;;;;5032780;28;20040;-52
2022/03/13 08:04:30;;;;;;;16.30;11.55;;;12.90;43.80;;;;;;5045387;28;20045;-48
2022/03/13 08:06:57;;;;;;;16.15;11.65;;;13.00;43.90;;;;;;5040613;28;20045;-50
2022/03/13 08:09:23;;;;;;;14.23;11.13;;;13.00;43.80;;;;;;5034952;28;20067;-52
2022/03/13 08:11:53;;;;;;;15.15;10.63;;;13.10;43.70;;;;;;5038676;28;20103;-47
2022/03/13 08:14:20;;;;;;;16.42;10.70;;;13.10;43.60;;;;;;5037516;28;20041;-51
2022/03/13 08:16:47;;;;;;;15.10;10.20;;;13.20;43.20;;;;;;5051351;28;20075;-51
2022/03/13 08:19:13;;;;;;;13.88;9.82;;;13.30;43.00;;;;;;5056524;28;20041;-48
2022/03/13 08:21:41;;;;;;;17.45;10.38;;;13.30;42.70;;;;;;5049446;28;20110;-47
2022/03/13 08:24:08;;;;;;;14.82;10.52;;;13.30;42.50;;;;;;5050557;28;20041;-47
2022/03/13 08:26:38;;;;;;;12.77;9.90;;;13.40;42.70;;;;;;5039427;28;20050;-47
2022/03/13 08:29:09;;;;;;;15.70;11.15;;;13.40;42.80;;;;;;5036219;28;21604;-47
2022/03/13 08:31:37;;;;;;;14.82;10.60;;;13.50;43.00;;;;;;5027344;28;20037;-48
2022/03/13 08:34:08;;;;;;;11.48;9.43;;;13.50;42.90;;;;;;5060954;28;20064;-51
2022/03/13 08:36:40;;;;;;;16.65;11.48;;;13.60;42.80;;;;;;5044171;28;20092;-47
2022/03/13 08:39:07;;;;;;;12.32;9.40;;;13.60;42.70;;;;;;5041443;28;20499;-51
2022/03/13 08:41:35;;;;;;;13.20;10.27;;;13.70;42.80;;;;;;5044682;28;20532;-48
2022/03/13 08:44:02;;;;;;;14.52;11.13;;;13.80;42.60;;;;;;5059589;28;20045;-49
2022/03/13 08:46:29;;;;;;;14.00;10.23;;;13.80;42.60;;;;;;5040446;28;20041;-46
2022/03/13 08:48:56;;;;;;;14.95;9.90;;;13.90;42.50;;;;;;5030010;28;20045;-54
2022/03/13 08:51:23;;;;;;;14.68;10.38;;;13.90;42.30;;;;;;5041265;28;20505;-49
2022/03/13 08:53:50;;;;;;;15.45;11.57;;;14.00;42.30;;;;;;5062418;28;20411;-54
2022/03/13 08:56:18;;;;;;;14.80;10.50;;;14.10;42.40;;;;;;5041213;28;20034;-50
2022/03/13 08:58:44;;;;;;;14.98;10.43;;;14.20;42.40;;;;;;5031798;28;20053;-54
2022/03/13 09:01:11;;;;;;;17.30;10.57;;;14.20;42.10;;;;;;5028417;28;20045;-49
2022/03/13 09:03:38;;;;;;;13.32;10.05;;;14.30;42.00;;;;;;5061961;28;20115;-47
2022/03/13 09:06:05;;;;;;;18.17;10.65;;;14.60;42.10;;;;;;5034397;28;20048;-49
2022/03/13 09:08:32;;;;;;;16.65;10.82;;;14.40;41.70;;;;;;5046829;28;20038;-47
2022/03/13 09:10:59;;;;;;;19.02;12.20;;;14.40;41.50;;;;;;5047284;28;20040;-48
2022/03/13 09:13:25;;;;;;;18.23;10.95;;;14.40;41.20;;;;;;5066885;28;20523;-48
2022/03/13 09:15:53;;;;;;;15.45;11.63;;;14.40;41.30;;;;;;5035685;28;20040;-48
2022/03/13 09:18:20;;;;;;;12.88;10.15;;;14.40;41.20;;;;;;5041872;28;20070;-51
2022/03/13 09:20:46;;;;;;;15.82;11.27;;;14.30;41.10;;;;;;5044335;28;20036;-47
2022/03/13 09:23:13;;;;;;;14.60;10.95;;;14.30;41.20;;;;;;5060754;28;20086;-50
2022/03/13 09:25:41;;;;;;;16.73;11.02;;;14.30;41.30;;;;;;5038815;28;20044;-47
2022/03/13 09:28:08;;;;;;;18.75;10.20;;;14.30;41.60;;;;;;5046779;28;20493;-47
2022/03/13 09:30:39;;;;;;;15.75;11.15;;;14.20;41.90;;;;;;5038864;28;20049;-46
2022/03/13 09:33:06;;;;;;;14.55;10.30;;;14.20;42.70;;;;;;5056226;28;20053;-47
2022/03/13 09:35:34;;;;;;;16.05;11.45;;;14.20;42.10;;;;;;5048461;28;20432;-46
2022/03/13 09:38:00;;;;;;;13.38;10.43;;;14.20;42.20;;;;;;5060978;28;20504;-47
2022/03/13 09:40:27;;;;;;;13.35;10.45;;;14.20;42.40;;;;;;5038406;28;20493;-47
2022/03/13 09:42:55;;;;;;;14.90;10.77;;;14.20;42.60;;;;;;5036022;28;20045;-46
2022/03/13 09:45:22;;;;;;;15.48;11.82;;;14.20;42.70;;;;;;5031123;28;20049;-49
2022/03/13 09:47:49;;;;;;;14.73;11.32;;;14.20;42.80;;;;;;5055978;28;20044;-47
2022/03/13 09:50:17;;;;;;;17.50;10.98;;;14.20;42.40;;;;;;5046706;28;20079;-48
2022/03/13 09:52:44;;;;;;;14.73;11.43;;;14.30;42.50;;;;;;5032343;28;20098;-51
2022/03/13 09:55:13;;;;;;;13.40;10.43;;;14.30;42.70;;;;;;5037908;28;20044;-52
2022/03/13 09:57:43;;;;;;;14.55;11.05;;;14.30;42.50;;;;;;5066365;28;20090;-49
2022/03/13 10:00:17;;;;;;;17.80;11.52;;;14.30;42.40;;;;;;5045744;28;20092;-50
2022/03/13 10:02:44;;;;;;;18.23;11.73;;;14.40;42.50;;;;;;5049859;28;20412;-46
2022/03/13 10:05:14;;;;;;;13.93;10.52;;;14.40;42.50;;;;;;5034874;28;20041;-53
2022/03/13 10:07:50;;;;;;;16.08;11.60;;;14.40;42.50;;;;;;5060472;28;20048;-47
2022/03/13 10:10:17;;;;;;;15.48;10.82;;;14.50;42.70;;;;;;5041457;28;20041;-49
2022/03/13 10:12:45;;;;;;;20.15;12.25;;;14.50;43.00;;;;;;5036758;28;20103;-49
2022/03/13 10:15:13;;;;;;;20.83;10.73;;;14.60;43.30;;;;;;5032677;28;20089;-46
2022/03/13 10:17:41;;;;;;;17.95;11.75;;;14.60;43.40;;;;;;5058675;28;20592;-47
2022/03/13 10:20:16;;;;;;;15.27;11.27;;;14.70;43.50;;;;;;5043439;28;20104;-47
2022/03/13 10:22:46;;;;;;;19.88;11.68;;;14.80;43.40;;;;;;5055804;28;20052;-48
2022/03/13 10:25:14;;;;;;;15.10;11.30;;;14.80;43.30;;;;;;5036262;28;20098;-52
2022/03/13 10:27:42;;;;;;;16.75;11.00;;;14.90;43.20;;;;;;5043739;28;20048;-47
2022/03/13 10:30:10;;;;;;;14.70;11.60;;;15.00;43.30;;;;;;5042317;28;20523;-47
2022/03/13 10:32:37;;;;;;;16.48;11.63;;;15.00;43.20;;;;;;5063037;28;20094;-47
2022/03/13 10:35:05;;;;;;;18.15;11.52;;;15.10;43.10;;;;;;5046492;28;20041;-49
2022/03/13 10:37:38;;;;;;;16.52;11.45;;;15.10;42.90;;;;;;5053154;28;20068;-47
2022/03/13 10:40:12;;;;;;;13.68;11.02;;;15.20;43.10;;;;;;5026482;28;20055;-46
2022/03/13 10:42:43;;;;;;;16.83;11.50;;;15.30;43.00;;;;;;5039657;28;20485;-48
2022/03/13 10:45:14;;;;;;;15.02;11.43;;;15.30;43.00;;;;;;5040377;28;20037;-51
2022/03/13 10:47:40;;;;;;;15.88;11.27;;;15.40;43.10;;;;;;5060435;28;20048;-47
2022/03/13 10:50:09;;;;;;;15.85;11.50;;;15.40;43.00;;;;;;5046554;28;20045;-49
2022/03/13 10:52:41;;;;;;;17.40;11.75;;;15.50;42.90;;;;;;5043681;28;20053;-47
2022/03/13 10:55:24;;;;;;;17.00;11.63;;;15.60;42.90;;;;;;5042023;28;20041;-46
2022/03/13 10:57:53;;;;;;;14.90;11.25;;;15.70;42.40;;;;;;5031506;28;20116;-49
2022/03/13 11:00:22;;;;;;;14.52;10.15;;;15.70;42.60;;;;;;5031250;28;20041;-47
2022/03/13 11:02:49;;;;;;;14.68;10.57;;;15.70;42.20;;;;;;5055567;28;20488;-47
2022/03/13 11:05:16;;;;;;;16.65;11.13;;;15.90;42.30;;;;;;5044172;28;20460;-47
2022/03/13 11:07:43;;;;;;;15.20;11.70;;;15.90;42.10;;;;;;5033822;28;20060;-50
2022/03/13 11:10:11;;;;;;;17.20;11.77;;;15.90;42.20;;;;;;5039638;28;20071;-47
2022/03/13 11:12:41;;;;;;;15.85;11.43;;;16.00;42.20;;;;;;5057972;28;20049;-48
2022/03/13 11:15:11;;;;;;;16.13;11.35;;;16.10;42.20;;;;;;5037908;28;20404;-50
2022/03/13 11:17:40;;;;;;;15.10;11.27;;;16.10;42.10;;;;;;5059280;28;20044;-50
2022/03/13 11:20:09;;;;;;;16.25;11.50;;;16.20;41.80;;;;;;5045170;28;20094;-47
2022/03/13 11:22:36;;;;;;;14.35;10.73;;;16.20;42.10;;;;;;5051404;28;20508;-50
2022/03/13 11:25:08;;;;;;;14.15;10.80;;;16.30;42.00;;;;;;5041351;28;20095;-49
2022/03/13 11:27:40;;;;;;;13.87;11.23;;;16.30;42.30;;;;;;5041436;28;20049;-49
2022/03/13 11:30:09;;;;;;;18.48;11.32;;;16.40;42.30;;;;;;5040201;28;20056;-46
2022/03/13 11:32:42;;;;;;;15.30;10.57;;;16.50;41.90;;;;;;5047674;28;20047;-47
2022/03/13 11:35:18;;;;;;;13.15;9.82;;;16.50;42.10;;;;;;5045547;28;20568;-46
2022/03/13 11:37:51;;;;;;;15.52;10.20;;;16.60;42.00;;;;;;5042623;28;20033;-47
2022/03/13 11:40:31;;;;;;;16.05;10.45;;;16.60;42.10;;;;;;5038396;28;20037;-53
2022/03/13 11:43:12;;;;;;;14.10;10.15;;;16.70;42.40;;;;;;5059970;28;20105;-46
2022/03/13 11:46:00;;;;;;;13.02;10.70;;;16.80;42.30;;;;;;5037018;28;20037;-48
2022/03/13 11:48:32;;;;;;;17.10;11.80;;;16.80;41.30;;;;;;5053862;28;20047;-49
2022/03/13 11:51:04;;;;;;;15.55;10.77;;;16.90;41.40;;;;;;5041481;28;20041;-49
2022/03/13 11:53:41;;;;;;;13.60;9.95;;;17.00;41.60;;;;;;5031933;28;20048;-47
2022/03/13 11:56:26;;;;;;;13.48;10.27;;;17.00;41.90;;;;;;5038568;28;20112;-49
2022/03/13 11:59:13;;;;;;;13.65;10.27;;;17.10;41.40;;;;;;5040408;28;20036;-52
2022/03/13 12:01:42;;;;;;;13.88;10.55;;;17.10;41.00;;;;;;5045171;28;20112;-48
2022/03/13 12:04:09;;;;;;;16.65;10.45;;;17.30;41.10;;;;;;5048865;28;20571;-50
2022/03/13 12:06:39;;;;;;;15.10;11.25;;;17.30;41.20;;;;;;5047192;28;20117;-51
2022/03/13 12:09:06;;;;;;;14.75;10.85;;;17.30;40.90;;;;;;5059137;28;20046;-48
2022/03/13 12:11:40;;;;;;;16.25;10.80;;;17.40;40.50;;;;;;5057145;28;20482;-49
2022/03/13 12:14:08;;;;;;;12.82;10.30;;;17.50;41.30;;;;;;5056424;28;20045;-51
2022/03/13 12:16:36;;;;;;;15.00;10.75;;;17.50;40.40;;;;;;5052310;28;20084;-48
2022/03/13 12:19:04;;;;;;;14.20;10.85;;;17.60;40.30;;;;;;5072690;28;20044;-51
2022/03/13 12:21:32;;;;;;;15.60;12.95;;;17.60;40.20;;;;;;5073917;28;20032;-49
2022/03/13 12:24:15;;;;;;;14.80;11.30;;;17.80;40.30;;;;;;5068420;28;20075;-49
2022/03/13 12:26:43;;;;;;;14.88;11.68;;;17.80;39.90;;;;;;5060596;28;20496;-47
2022/03/13 12:32:11;;;;;;;11.25;8.75;;;17.90;40.20;;;;;;4998398;28;20047;-45
2022/03/13 12:34:40;;;;;;;14.30;10.35;;;18.00;39.70;;;;;;4997509;28;20530;-45
2022/03/13 12:37:08;;;;;;;15.30;10.80;;;18.20;40.00;;;;;;5007203;28;20037;-45
2022/03/13 12:39:50;;;;;;;15.82;10.52;;;18.20;39.70;;;;;;4989249;28;20038;-46